Time;durP1;ratioP1;P1;durP2;ratioP2;P2;SDS_P1;SDS_P2;PMS_P1;PMS_P2;Temp;Humidity;BMP_temperature;BMP_pressure;BME280_temperature;BME280_humidity;BME280_pressure;Samples;Min_cycle;Max_cycle;Signal;HPM_P1;HPM_P2
2022/04/22 00:02:29;;;;;;;9.23;5.53;;;6.90;78.40;;;5.17;64.46;99559.50;10366979;28;96783;-83
2022/04/22 00:07:32;;;;;;;9.93;5.93;;;6.80;79.90;;;5.15;64.57;99550.91;10325975;28;96842;-83
2022/04/22 00:12:35;;;;;;;11.37;5.80;;;6.80;80.50;;;5.13;65.18;99551.06;10323791;28;97538;-83
2022/04/22 00:17:40;;;;;;;9.03;5.70;;;6.80;81.60;;;5.13;65.41;99550.22;10313219;28;96966;-83
2022/04/22 00:22:44;;;;;;;9.87;5.63;;;6.80;81.20;;;5.05;65.13;99538.63;10301507;28;96538;-83
2022/04/22 00:27:48;;;;;;;10.47;6.57;;;6.70;82.30;;;5.01;65.84;99525.91;10310593;28;97125;-83
2022/04/22 00:32:50;;;;;;;8.90;5.73;;;6.70;84.00;;;5.00;65.76;99516.34;10332081;28;96751;-83
2022/04/22 00:37:53;;;;;;;10.60;6.73;;;6.60;82.50;;;4.99;65.59;99512.06;10308178;28;98084;-83
2022/04/22 00:42:56;;;;;;;11.53;7.07;;;6.60;83.70;;;4.98;65.67;99516.50;10305659;28;96464;-83
2022/04/22 00:47:59;;;;;;;12.57;6.73;;;6.60;83.80;;;4.99;65.70;99514.72;10341142;28;97238;-83
2022/04/22 00:53:03;;;;;;;11.33;7.23;;;6.60;84.70;;;4.95;66.75;99503.63;10359068;28;97112;-83
2022/04/22 00:58:07;;;;;;;10.43;7.30;;;6.60;87.50;;;4.95;66.61;99500.16;10299981;28;97249;-83
2022/04/22 01:03:10;;;;;;;13.30;7.67;;;6.60;87.00;;;4.95;66.46;99495.72;10322100;28;96669;-83
2022/04/22 01:13:35;;;;;;;11.63;7.57;;;6.60;87.50;;;5.00;67.40;99490.84;10321570;28;96953;-83
2022/04/22 01:18:38;;;;;;;13.17;7.40;;;6.60;87.90;;;5.02;66.86;99480.97;10345395;28;97800;-82
2022/04/22 01:23:41;;;;;;;12.10;6.77;;;6.70;88.10;;;5.00;66.56;99479.50;10331766;28;97748;-82
2022/04/22 01:28:44;;;;;;;9.27;6.30;;;6.70;88.80;;;4.98;67.22;99471.75;10300327;28;96934;-83
2022/04/22 01:33:47;;;;;;;10.27;6.63;;;6.70;89.70;;;4.99;67.17;99476.03;10324041;28;97474;-83
2022/04/22 01:38:50;;;;;;;10.43;6.67;;;6.60;91.00;;;4.98;67.37;99473.56;10335935;28;96388;-83
2022/04/22 01:43:53;;;;;;;11.63;6.40;;;6.60;90.60;;;4.99;67.46;99465.50;10339090;28;96573;-83
2022/04/22 01:48:57;;;;;;;9.67;5.43;;;6.60;90.50;;;5.01;67.05;99458.28;10344099;28;96793;-83
2022/04/22 01:54:00;;;;;;;9.13;6.27;;;6.70;90.60;;;5.02;67.95;99438.03;10324138;28;96504;-83
2022/04/22 01:59:03;;;;;;;9.53;5.93;;;6.60;91.70;;;5.02;67.96;99423.06;10319739;28;96595;-83
2022/04/22 02:04:06;;;;;;;11.67;7.17;;;6.60;91.90;;;5.04;68.03;99428.19;10323866;28;96560;-83
2022/04/22 02:09:09;;;;;;;8.63;6.40;;;6.60;91.30;;;5.04;68.04;99415.84;10343372;28;96639;-82
2022/04/22 02:14:12;;;;;;;10.63;6.60;;;6.70;91.20;;;5.05;67.97;99401.69;10344994;28;97489;-82
2022/04/22 02:19:17;;;;;;;12.13;7.23;;;6.70;91.40;;;5.08;68.34;99411.09;10337422;28;97472;-83
2022/04/22 02:24:19;;;;;;;13.20;7.90;;;6.70;91.70;;;5.07;68.24;99402.38;10310108;28;96535;-83
2022/04/22 02:29:23;;;;;;;11.77;7.30;;;6.70;91.60;;;5.04;68.67;99410.59;10316136;28;96905;-83
2022/04/22 02:34:26;;;;;;;13.90;8.33;;;6.70;92.50;;;5.04;68.64;99413.22;10316960;28;98012;-83
2022/04/22 02:39:29;;;;;;;12.37;7.47;;;6.70;92.30;;;5.02;69.04;99412.53;10298030;28;96562;-83
2022/04/22 02:49:54;;;;;;;16.85;9.70;;;6.60;93.90;;;4.97;69.41;99409.50;10333155;28;97041;-83
2022/04/22 02:54:57;;;;;;;14.63;8.10;;;6.60;94.10;;;4.95;69.06;99408.84;10311311;28;96676;-83
2022/04/22 03:00:00;;;;;;;14.90;8.93;;;6.60;93.70;;;4.96;70.00;99394.69;10296571;28;96540;-83
2022/04/22 03:05:10;;;;;;;14.93;9.30;;;6.60;94.30;;;4.96;70.01;99394.69;10367602;28;96616;-83
2022/04/22 03:10:13;;;;;;;17.10;9.10;;;6.60;94.80;;;5.02;70.20;99391.47;10317052;28;96651;-83
2022/04/22 03:15:16;;;;;;;14.97;8.97;;;6.60;94.80;;;5.08;69.80;99380.31;10313352;28;97744;-83
2022/04/22 03:20:19;;;;;;;16.93;10.30;;;6.70;94.70;;;5.16;70.71;99376.94;10299963;28;96494;-83
2022/04/22 03:25:22;;;;;;;17.37;10.87;;;6.80;95.10;;;5.25;70.90;99375.19;10334653;28;96678;-83
2022/04/22 03:30:26;;;;;;;17.43;11.10;;;6.80;95.40;;;5.35;70.85;99378.56;10312633;28;98681;-83
2022/04/22 03:35:29;;;;;;;17.20;9.03;;;6.90;95.40;;;5.48;70.38;99370.22;10385859;28;97351;-83
2022/04/22 03:40:32;;;;;;;14.10;9.07;;;7.00;95.40;;;5.60;69.80;99371.63;10348305;28;96628;-83
2022/04/22 03:45:36;;;;;;;15.07;8.70;;;7.10;95.60;;;5.73;69.76;99371.19;10333173;28;97207;-82
2022/04/22 03:50:40;;;;;;;15.73;8.40;;;7.30;95.30;;;5.86;69.45;99374.22;10324153;28;97502;-83
2022/04/22 03:55:44;;;;;;;12.73;8.80;;;7.40;95.00;;;6.00;67.87;99376.31;10306353;28;96452;-83
2022/04/22 04:00:50;;;;;;;14.20;8.57;;;7.50;94.20;;;6.15;67.67;99372.06;10333131;28;97530;-82
2022/04/22 04:05:54;;;;;;;13.57;8.53;;;7.70;93.90;;;6.28;66.78;99374.25;10364500;28;96587;-82
2022/04/22 04:16:19;;;;;;;12.52;8.35;;;7.90;92.80;;;6.54;64.84;99363.59;10312845;28;98539;-83
2022/04/22 04:26:44;;;;;;;13.90;8.45;;;8.20;91.70;;;6.79;64.13;99371.56;10298936;28;96698;-83
2022/04/22 04:31:47;;;;;;;16.07;8.63;;;8.30;91.30;;;6.92;63.17;99380.66;10332575;28;97336;-82
2022/04/22 04:36:50;;;;;;;14.67;8.33;;;8.40;90.50;;;7.08;62.61;99374.56;10341804;28;97316;-82
2022/04/22 04:41:54;;;;;;;12.43;7.40;;;8.50;90.10;;;7.24;62.39;99355.19;10307723;28;96639;-82
2022/04/22 04:46:57;;;;;;;12.63;7.43;;;8.70;90.00;;;7.41;61.38;99382.44;10317205;28;96741;-82
2022/04/22 04:52:02;;;;;;;13.50;8.10;;;8.80;88.60;;;7.55;59.86;99365.88;10335677;28;96433;-82
2022/04/22 04:57:05;;;;;;;10.80;6.83;;;9.00;86.10;;;7.67;58.83;99371.63;10313219;28;96822;-83
2022/04/22 05:02:08;;;;;;;10.13;7.37;;;9.10;84.80;;;7.79;59.16;99373.75;10315291;28;96461;-82
2022/04/22 05:07:11;;;;;;;12.83;8.10;;;9.20;84.90;;;7.89;59.09;99357.69;10295847;28;96842;-82
2022/04/22 05:12:14;;;;;;;16.17;7.90;;;9.40;84.20;;;8.00;59.39;99372.38;10329424;28;96517;-82
2022/04/22 05:17:17;;;;;;;12.97;7.63;;;9.50;84.40;;;8.10;58.97;99380.13;10330512;28;96649;-81
2022/04/22 05:22:20;;;;;;;13.87;7.60;;;9.60;83.70;;;8.18;58.54;99362.38;10338989;28;96572;-82
2022/04/22 05:27:23;;;;;;;10.67;7.70;;;9.70;82.70;;;8.25;58.21;99375.72;10314058;28;97596;-82
2022/04/22 05:32:38;;;;;;;12.57;8.60;;;9.70;82.00;;;8.34;58.18;99377.34;10313353;28;98830;-81
2022/04/22 05:37:58;;;;;;;11.50;8.23;;;9.80;81.80;;;8.41;58.32;99385.47;10313272;28;96698;-81
2022/04/22 05:43:04;;;;;;;13.30;8.67;;;9.90;81.70;;;8.48;57.95;99383.75;10329061;28;96645;-81
2022/04/22 05:48:07;;;;;;;12.70;8.77;;;10.00;81.10;;;8.52;58.11;99383.25;10312188;28;98235;-81
2022/04/22 05:53:10;;;;;;;13.47;8.57;;;10.10;81.40;;;8.55;57.99;99382.06;10360262;28;97470;-83
2022/04/22 05:58:13;;;;;;;15.40;8.73;;;10.10;80.50;;;8.63;57.81;99379.34;10377718;28;97251;-82
2022/04/22 06:03:16;;;;;;;12.60;8.37;;;10.20;80.40;;;8.69;57.21;99377.81;10362799;28;97896;-82
2022/04/22 06:13:41;;;;;;;;;;;10.30;79.40;;;8.78;56.52;99372.31;10320725;28;97525;-82
2022/04/22 06:18:48;;;;;;;13.17;8.73;;;10.30;78.50;;;8.81;56.82;99369.28;10346827;28;96646;-83
2022/04/22 06:23:52;;;;;;;14.97;8.63;;;10.40;78.60;;;8.88;57.04;99373.91;10309272;28;96429;-82
2022/04/22 06:28:55;;;;;;;15.83;9.10;;;10.40;78.50;;;8.94;56.28;99373.19;10293131;28;96671;-82
2022/04/22 06:33:59;;;;;;;29.47;17.77;;;10.50;77.90;;;9.01;56.08;99352.94;10306977;28;96571;-83
2022/04/22 06:39:03;;;;;;;12.83;8.33;;;10.50;77.40;;;9.08;55.88;99346.75;10299911;28;96536;-82
2022/04/22 06:49:29;;;;;;;13.83;8.53;;;10.60;77.20;;;9.26;55.40;99329.69;10373550;28;96600;-81
2022/04/22 06:54:32;;;;;;;12.40;8.63;;;10.70;76.60;;;9.33;55.16;99344.69;10324837;28;96670;-83
2022/04/22 06:59:36;;;;;;;14.00;8.27;;;10.80;76.00;;;9.38;54.53;99330.88;10301702;28;96622;-82
2022/04/22 07:04:39;;;;;;;12.60;9.00;;;10.90;75.40;;;9.49;54.82;99321.66;10325713;28;96585;-83
2022/04/22 07:09:43;;;;;;;13.23;7.70;;;11.00;75.80;;;9.57;54.05;99337.47;10292399;28;96347;-82
2022/04/22 07:14:47;;;;;;;14.33;8.40;;;11.00;74.60;;;9.58;53.32;99331.16;10324045;28;97529;-83
2022/04/22 07:19:51;;;;;;;13.70;8.00;;;11.00;73.70;;;9.62;53.41;99335.13;10365226;28;96580;-83
2022/04/22 07:24:56;;;;;;;13.17;8.63;;;11.10;73.30;;;9.56;53.56;99338.50;10334925;28;96634;-83
2022/04/22 07:29:59;;;;;;;12.40;7.93;;;11.00;72.90;;;9.56;53.80;99327.88;10313508;28;96812;-82
2022/04/22 07:35:05;;;;;;;14.87;8.30;;;11.00;73.10;;;9.56;54.06;99335.84;10332711;28;96481;-83
2022/04/22 07:40:10;;;;;;;15.17;8.07;;;11.00;73.10;;;9.55;54.13;99328.91;10345310;28;96556;-83
2022/04/22 07:50:56;;;;;;;13.57;8.67;;;11.00;73.00;;;9.53;54.11;99337.00;10290553;28;96655;-83
2022/04/22 07:55:59;;;;;;;12.80;8.00;;;11.00;72.90;;;9.62;54.21;99337.75;10360780;28;98739;-83
2022/04/22 08:01:03;;;;;;;15.70;8.07;;;11.00;73.10;;;9.77;54.73;99327.97;10336666;28;96588;-83
2022/04/22 08:06:06;;;;;;;16.90;9.43;;;11.20;73.40;;;9.86;55.04;99326.88;10334483;28;96613;-81
2022/04/22 08:11:12;;;;;;;12.57;8.70;;;11.30;73.70;;;9.93;56.18;99324.28;10364938;28;98618;-82
2022/04/22 08:16:16;;;;;;;12.93;8.10;;;11.40;74.50;;;9.96;58.11;99313.31;10310859;28;97888;-83
2022/04/22 08:21:20;;;;;;;13.77;9.40;;;11.40;75.80;;;9.92;58.29;99323.47;10314804;28;96432;-83
2022/04/22 08:26:24;;;;;;;15.87;9.47;;;11.40;76.80;;;9.86;59.61;99315.44;10343799;28;96661;-83
2022/04/22 08:31:31;;;;;;;15.27;10.50;;;11.30;78.40;;;9.82;60.88;99307.00;10335419;28;97153;-82
2022/04/22 08:36:35;;;;;;;14.13;9.43;;;11.30;79.70;;;9.77;61.84;99290.00;10309257;28;98737;-81
2022/04/22 08:41:41;;;;;;;15.03;9.33;;;11.20;81.10;;;9.74;62.22;99288.53;10350721;28;96818;-82
2022/04/22 08:52:12;;;;;;;13.57;9.93;;;11.20;83.70;;;9.78;63.13;99289.84;10334814;28;96556;-82
2022/04/22 08:57:16;;;;;;;16.13;11.03;;;11.20;85.10;;;9.74;64.26;99285.88;10352442;28;96659;-82
2022/04/22 09:02:20;;;;;;;13.53;9.97;;;11.20;86.50;;;9.71;64.96;99288.06;10293793;28;96420;-82
2022/04/22 09:07:28;;;;;;;15.83;11.47;;;11.20;88.90;;;9.68;66.46;99283.97;10307935;28;96492;-82
2022/04/22 09:12:33;;;;;;;16.83;12.07;;;11.10;90.60;;;9.71;67.66;99275.63;10310165;28;97588;-82
2022/04/22 09:17:38;;;;;;;14.23;10.43;;;11.10;91.90;;;9.76;68.73;99280.41;10294509;28;96415;-81
2022/04/22 09:22:45;;;;;;;16.17;11.87;;;11.20;92.50;;;9.64;68.79;99274.72;10309074;28;96512;-81
2022/04/22 09:27:48;;;;;;;17.87;12.50;;;11.10;93.30;;;9.62;70.63;99260.84;10318821;28;96611;-81
2022/04/22 09:32:51;;;;;;;16.73;11.03;;;11.10;95.90;;;9.64;72.02;99259.63;10319862;28;97386;-81
2022/04/22 09:43:21;;;;;;;25.60;14.20;;;11.10;98.60;;;9.61;73.64;99251.25;10342729;28;96560;-81
2022/04/22 09:48:25;;;;;;;18.20;12.93;;;11.10;99.90;;;9.62;74.27;99256.34;10303466;28;96653;-81
2022/04/22 09:53:34;;;;;;;16.77;12.53;;;11.10;99.90;;;9.48;74.17;99249.25;10337069;28;99297;-81
2022/04/22 09:58:38;;;;;;;18.80;13.07;;;11.00;99.90;;;9.32;74.96;99234.34;10370840;28;96472;-81
2022/04/22 10:03:46;;;;;;;20.40;13.33;;;10.80;99.90;;;9.25;75.37;99228.13;10354973;28;96618;-80
2022/04/22 10:08:51;;;;;;;17.47;13.53;;;10.70;99.90;;;9.29;75.65;99220.59;10348745;28;96645;-81
2022/04/22 10:13:55;;;;;;;18.93;12.43;;;10.70;99.90;;;9.33;75.36;99213.94;10292010;28;97327;-81
2022/04/22 10:18:59;;;;;;;17.37;13.83;;;10.80;99.90;;;9.38;75.81;99211.56;10334074;28;96431;-81
2022/04/22 10:24:03;;;;;;;19.10;13.60;;;10.80;99.90;;;9.46;75.96;99215.94;10332516;28;96510;-81
2022/04/22 10:29:09;;;;;;;19.17;14.53;;;10.80;99.90;;;9.61;76.06;99219.41;10320193;28;97438;-82
2022/04/22 10:34:12;;;;;;;18.10;12.63;;;11.00;99.90;;;9.71;75.17;99206.66;10316993;28;96503;-82
2022/04/22 10:39:35;;;;;;;16.00;12.17;;;11.10;99.90;;;9.76;73.78;99198.16;10325470;28;96914;-82
2022/04/22 10:50:29;;;;;;;12.37;9.97;;;11.20;99.90;;;10.04;71.29;99195.59;10382368;28;96493;-82
2022/04/22 10:55:38;;;;;;;14.17;10.47;;;11.40;99.90;;;10.11;69.79;99176.06;10308163;28;96573;-82
2022/04/22 11:01:04;;;;;;;12.80;10.37;;;11.50;99.90;;;10.24;69.85;99187.84;10291960;28;97814;-82
2022/04/22 11:06:12;;;;;;;11.77;9.93;;;11.50;99.90;;;10.37;69.63;99180.81;10293830;28;97550;-82
2022/04/22 11:11:19;;;;;;;15.30;10.10;;;11.70;99.90;;;10.49;68.61;99178.47;10329107;28;98603;-82
2022/04/22 11:16:22;;;;;;;15.77;11.20;;;11.80;99.20;;;10.67;68.26;99167.38;10292839;28;96482;-82
2022/04/22 11:21:33;;;;;;;19.47;13.60;;;12.00;98.90;;;10.82;67.00;99152.16;10291165;28;96447;-83
2022/04/22 11:26:37;;;;;;;16.40;10.77;;;12.10;97.90;;;10.92;64.89;99139.34;10331108;28;97373;-83
2022/04/22 11:32:05;;;;;;;11.40;8.37;;;12.20;96.00;;;11.20;65.42;99135.78;10329864;28;96574;-82
2022/04/22 11:37:19;;;;;;;11.37;8.73;;;12.50;96.20;;;11.49;63.36;99132.84;10318586;28;96808;-82
2022/04/22 11:42:24;;;;;;;10.67;8.93;;;12.80;94.60;;;11.61;61.49;99129.59;10343627;28;96576;-83
2022/04/22 11:47:28;;;;;;;12.53;9.63;;;12.90;92.80;;;11.79;62.03;99117.34;10340674;28;96635;-82
2022/04/22 11:52:37;;;;;;;15.43;9.10;;;13.10;92.60;;;11.91;58.12;99112.28;10345595;28;98337;-83
2022/04/22 11:57:53;;;;;;;9.53;7.33;;;13.30;89.70;;;12.07;59.36;99119.06;10314205;28;96527;-83
2022/04/22 12:08:27;;;;;;;10.67;7.50;;;13.50;86.50;;;12.29;55.79;99104.53;10303458;28;96621;-82
2022/04/22 12:13:31;;;;;;;9.93;7.23;;;13.60;82.90;;;12.43;54.51;99089.38;10296397;28;96427;-83
2022/04/22 12:18:39;;;;;;;9.50;6.00;;;13.70;80.70;;;12.49;52.68;99087.72;10310018;28;98358;-82
2022/04/22 12:23:49;;;;;;;8.77;5.80;;;13.80;77.50;;;12.44;52.43;99083.00;10315816;28;96607;-83
2022/04/22 12:29:09;;;;;;;8.80;6.43;;;13.80;75.70;;;12.47;51.91;99071.91;10335143;28;97536;-83
2022/04/22 12:34:24;;;;;;;7.83;5.27;;;13.80;74.50;;;12.52;51.53;99068.63;10316206;28;97884;-82
2022/04/22 12:39:43;;;;;;;8.67;5.20;;;13.80;73.70;;;12.73;52.02;99056.91;10329252;28;96745;-82
2022/04/22 12:56:06;;;;;;;8.50;4.97;;;14.20;68.10;;;12.91;47.64;99043.72;10328365;28;96574;-81
2022/04/22 13:01:21;;;;;;;8.03;4.70;;;14.20;66.30;;;12.89;47.17;99040.44;10305186;28;96530;-82
2022/04/22 13:06:48;;;;;;;7.83;4.80;;;14.20;65.60;;;12.86;47.43;99031.03;10337483;28;96779;-82
2022/04/22 13:11:51;;;;;;;8.10;4.67;;;14.20;65.20;;;12.84;46.65;99017.09;10336873;28;96878;-82
2022/04/22 13:16:55;;;;;;;7.93;5.33;;;14.20;64.40;;;12.91;46.90;99013.59;10353914;28;96958;-82
2022/04/22 13:21:58;;;;;;;9.20;5.03;;;14.20;64.20;;;12.91;46.29;99019.72;10320751;28;96816;-82
2022/04/22 13:27:02;;;;;;;8.33;4.93;;;14.20;63.70;;;12.88;46.73;99017.47;10334022;28;97567;-82
2022/04/22 13:32:05;;;;;;;10.07;5.10;;;14.20;63.50;;;12.83;44.92;99009.28;10335555;28;96401;-83
2022/04/22 13:37:09;;;;;;;8.00;5.50;;;14.20;61.80;;;12.76;44.43;99000.50;10320354;28;98229;-81
2022/04/22 13:42:13;;;;;;;8.07;5.30;;;14.10;60.90;;;12.76;44.18;98995.19;10335248;28;96572;-82
2022/04/22 13:52:38;;;;;;;10.10;4.80;;;14.10;60.50;;;12.90;44.66;98998.63;10330615;28;96540;-83
2022/04/22 13:57:42;;;;;;;8.33;4.50;;;14.10;60.50;;;12.87;44.72;98991.84;10313793;28;98947;-83
2022/04/22 14:02:44;;;;;;;8.37;4.80;;;14.20;60.10;;;12.84;43.91;98981.63;10333406;28;96648;-84
2022/04/22 14:07:48;;;;;;;6.30;4.30;;;14.10;59.70;;;12.82;43.60;98983.66;10329272;28;98292;-83
2022/04/22 14:12:52;;;;;;;10.87;4.63;;;14.10;59.00;;;12.84;43.33;98984.28;10349145;28;97702;-83
2022/04/22 14:17:55;;;;;;;7.67;4.47;;;14.10;59.00;;;12.86;43.08;98976.88;10331317;28;96542;-83
2022/04/22 14:22:58;;;;;;;7.63;4.80;;;14.10;58.50;;;12.90;42.99;98980.78;10323567;28;96853;-83
2022/04/22 14:28:01;;;;;;;9.07;4.40;;;14.10;58.20;;;12.96;43.53;98974.59;10306333;28;97106;-83
2022/04/22 14:33:04;;;;;;;19.77;8.90;;;14.20;58.60;;;12.99;44.18;98979.47;10348133;28;96632;-83
2022/04/22 14:38:08;;;;;;;19.23;9.53;;;14.20;59.00;;;12.99;45.01;98981.34;10319698;28;96690;-82
2022/04/22 14:43:10;;;;;;;38.10;15.03;;;14.30;59.80;;;12.97;45.05;98973.56;10312760;28;96554;-83
2022/04/22 14:48:13;;;;;;;11.97;7.53;;;14.20;60.10;;;12.84;47.20;98989.63;10329935;28;96461;-82
2022/04/22 14:53:16;;;;;;;9.00;6.03;;;14.20;61.70;;;12.73;48.54;98987.63;10340280;28;97567;-83
2022/04/22 14:58:20;;;;;;;9.50;5.83;;;14.10;63.30;;;12.62;48.51;98975.75;10338006;28;96698;-82
2022/04/22 15:03:23;;;;;;;12.53;5.37;;;14.00;63.70;;;12.54;48.21;98963.50;10320842;28;97165;-83
2022/04/22 15:08:27;;;;;;;8.83;5.57;;;13.90;63.20;;;12.51;48.59;98966.56;10317834;28;96823;-83
2022/04/22 15:13:33;;;;;;;8.90;5.10;;;13.80;63.60;;;12.49;47.45;98954.50;10328728;28;96651;-82
2022/04/22 15:24:09;;;;;;;6.20;4.60;;;13.80;62.70;;;12.56;47.27;98948.09;10346214;28;96658;-83
2022/04/22 15:29:15;;;;;;;7.73;4.70;;;13.90;62.60;;;12.58;46.54;98930.03;10338701;28;97026;-82
2022/04/22 15:34:19;;;;;;;9.63;4.70;;;13.90;61.60;;;12.59;46.09;98934.38;10332567;28;96980;-83
2022/04/22 15:39:22;;;;;;;7.33;4.90;;;13.90;61.30;;;12.63;45.87;98924.09;10328022;28;96725;-83
2022/04/22 15:44:29;;;;;;;6.70;4.40;;;13.90;60.90;;;12.69;46.03;98917.91;10347949;28;96986;-84
2022/04/22 15:49:32;;;;;;;7.40;4.83;;;14.00;61.20;;;12.72;45.77;98912.16;10339200;28;96858;-83
2022/04/22 15:54:36;;;;;;;7.17;4.40;;;14.10;60.70;;;12.72;45.57;98908.69;10326768;28;98303;-84
2022/04/22 15:59:41;;;;;;;8.37;5.60;;;14.00;60.40;;;12.72;45.54;98900.69;10304560;28;97384;-84
2022/04/22 16:04:44;;;;;;;6.97;4.90;;;14.10;60.40;;;12.74;46.57;98882.63;10318127;28;96990;-84
2022/04/22 16:09:47;;;;;;;7.00;5.33;;;14.10;61.20;;;12.77;47.13;98890.19;10322747;28;96634;-83
2022/04/22 16:20:12;;;;;;;;;;;14.10;62.00;;;12.83;48.40;98886.66;10337303;28;98085;-84
2022/04/22 16:25:18;;;;;;;7.77;5.87;;;14.10;63.50;;;12.87;49.06;98898.53;10320196;28;97488;-84
2022/04/22 16:30:21;;;;;;;7.07;4.90;;;14.20;63.90;;;12.88;50.67;98916.16;10324994;28;97047;-84
2022/04/22 16:35:25;;;;;;;11.23;6.27;;;14.20;65.30;;;12.73;55.15;98928.97;10323190;28;97145;-84
2022/04/22 16:40:34;;;;;;;9.83;7.70;;;14.10;68.80;;;12.09;61.17;98943.94;10328235;28;96990;-81
2022/04/22 16:45:38;;;;;;;18.07;10.63;;;13.60;75.10;;;11.45;65.93;98953.34;10315427;28;98529;-80
2022/04/22 16:50:42;;;;;;;16.13;10.97;;;13.10;79.70;;;10.79;69.33;98955.88;10319039;28;96772;-80
2022/04/22 16:55:45;;;;;;;11.83;8.30;;;12.60;85.80;;;10.16;72.12;98953.31;10331029;28;96597;-80
2022/04/22 17:00:48;;;;;;;13.10;10.03;;;11.90;93.30;;;9.77;74.25;98935.31;10305868;28;98389;-80
2022/04/22 17:05:51;;;;;;;13.43;9.83;;;11.40;97.50;;;9.60;76.04;98931.31;10333105;28;96575;-80
2022/04/22 17:10:54;;;;;;;13.33;9.53;;;11.20;99.90;;;9.43;77.54;98925.47;10310976;28;98454;-80
2022/04/22 17:26:46;;;;;;;14.82;9.68;;;10.50;99.90;;;8.80;82.37;98945.63;10321970;28;96749;-83
2022/04/22 17:31:49;;;;;;;16.90;11.30;;;10.30;99.90;;;8.68;83.62;98950.59;10314672;28;96656;-83
2022/04/22 17:36:52;;;;;;;16.47;11.90;;;10.20;99.90;;;8.60;84.61;98958.66;10316112;28;98488;-84
2022/04/22 17:41:55;;;;;;;14.30;11.43;;;10.10;99.90;;;8.50;85.48;98950.16;10339736;28;98681;-83
2022/04/22 17:46:58;;;;;;;16.63;12.37;;;10.00;99.90;;;8.43;86.25;98959.88;10352676;28;98913;-83
2022/04/22 17:52:02;;;;;;;16.80;11.57;;;9.90;99.90;;;8.33;86.73;98968.84;10308037;28;97360;-83
2022/04/22 17:57:06;;;;;;;15.33;11.63;;;9.80;99.90;;;8.24;87.49;98956.75;10317565;28;98226;-82
2022/04/22 18:02:10;;;;;;;21.00;12.17;;;9.70;99.90;;;8.20;88.12;98976.63;10335079;28;96484;-80
2022/04/22 18:07:13;;;;;;;14.40;10.60;;;9.60;99.90;;;8.15;89.14;99004.63;10328955;28;97698;-81
2022/04/22 18:12:17;;;;;;;13.03;10.73;;;9.60;99.90;;;8.07;89.68;99018.78;10324126;28;97389;-80
2022/04/22 18:17:20;;;;;;;15.90;11.60;;;9.50;99.90;;;8.02;89.89;99023.78;10323853;28;96999;-80
2022/04/22 18:22:23;;;;;;;20.80;13.00;;;9.50;99.90;;;7.96;90.70;99054.41;10326549;28;96902;-79
2022/04/22 18:27:27;;;;;;;19.10;12.93;;;9.40;99.90;;;7.95;91.49;99075.78;10330970;28;98506;-79
2022/04/22 18:32:31;;;;;;;24.23;14.83;;;9.40;99.90;;;7.94;91.97;99074.13;10320297;28;96706;-79
2022/04/22 18:37:35;;;;;;;23.40;15.10;;;9.40;99.90;;;7.90;92.15;99063.06;10329606;28;96655;-79
2022/04/22 18:42:39;;;;;;;20.07;14.83;;;9.40;99.90;;;7.83;92.72;99054.22;10300300;28;96676;-78
2022/04/22 18:47:42;;;;;;;20.07;12.57;;;9.30;99.90;;;7.77;92.86;99044.34;10327235;28;96853;-78
2022/04/22 18:52:45;;;;;;;16.40;10.60;;;9.20;99.90;;;7.69;93.10;99053.16;10322719;28;98253;-79
2022/04/22 18:57:48;;;;;;;16.90;11.73;;;9.10;99.90;;;7.64;93.60;99044.94;10318858;28;96502;-79
2022/04/22 19:03:10;;;;;;;18.23;12.70;;;9.10;99.90;;;7.61;93.97;99037.34;10328335;28;97212;-78
2022/04/22 19:08:20;;;;;;;19.37;12.20;;;9.00;99.90;;;7.58;94.19;99027.13;10310048;28;96881;-78
2022/04/22 19:13:24;;;;;;;18.53;11.60;;;9.00;99.90;;;7.56;94.22;99025.66;10340151;28;96846;-78
2022/04/22 19:18:27;;;;;;;15.83;11.13;;;9.00;99.90;;;7.55;94.46;99014.25;10314286;28;98376;-78
2022/04/22 19:23:30;;;;;;;20.90;13.27;;;9.00;99.90;;;7.55;95.05;99011.63;10312799;28;96709;-78
2022/04/22 19:28:33;;;;;;;18.73;12.47;;;9.00;99.90;;;7.56;94.87;99008.00;10314717;28;97084;-78
2022/04/22 19:33:37;;;;;;;18.73;12.73;;;9.00;99.90;;;7.56;94.99;98989.50;10315561;28;98996;-78
2022/04/22 19:44:03;;;;;;;16.15;12.07;;;9.00;99.90;;;7.62;95.65;98972.91;10342478;28;97859;-78
2022/04/22 19:49:06;;;;;;;18.67;12.80;;;9.00;99.90;;;7.66;95.81;98965.44;10316927;28;98749;-78
2022/04/22 19:54:10;;;;;;;20.60;13.03;;;9.10;99.90;;;7.68;96.21;98956.34;10317870;28;98211;-78
2022/04/22 19:59:13;;;;;;;17.97;13.30;;;9.10;99.90;;;7.72;96.36;98957.59;10344941;28;96460;-77
2022/04/22 20:04:16;;;;;;;15.83;12.10;;;9.20;99.90;;;7.77;96.87;98963.19;10324964;28;96921;-77
2022/04/22 20:09:18;;;;;;;13.63;10.80;;;9.30;99.90;;;7.82;97.04;98973.22;10321979;28;96623;-78
2022/04/22 20:14:24;;;;;;;14.07;11.43;;;9.30;99.90;;;7.89;97.35;98990.00;10323929;28;98040;-78
2022/04/22 20:19:27;;;;;;;18.43;12.53;;;9.40;99.90;;;7.95;97.83;99001.69;10340307;28;96596;-78
2022/04/22 20:24:30;;;;;;;17.63;12.47;;;9.40;99.90;;;8.00;97.67;99001.97;10327071;28;96919;-78
2022/04/22 20:29:32;;;;;;;15.10;11.60;;;9.50;99.90;;;8.00;97.73;99005.44;10333893;28;96637;-77
2022/04/22 20:45:19;;;;;;;19.60;12.30;;;9.60;99.90;;;7.97;97.97;98995.22;10313006;28;97333;-78
2022/04/22 20:50:23;;;;;;;17.67;11.83;;;9.50;99.90;;;7.97;98.10;98994.41;10295361;28;96838;-78
2022/04/22 20:55:26;;;;;;;17.63;12.13;;;9.50;99.90;;;7.96;98.13;98993.56;10312365;28;96742;-78
2022/04/22 21:00:30;;;;;;;16.00;12.60;;;9.50;99.90;;;7.91;98.26;98987.19;10299774;28;96754;-78
2022/04/22 21:05:33;;;;;;;16.17;12.43;;;9.50;99.90;;;7.87;98.42;98986.75;10319461;28;97755;-78
2022/04/22 21:10:36;;;;;;;18.13;12.90;;;9.40;99.90;;;7.83;98.28;98990.72;10325075;28;96580;-78
2022/04/22 21:15:39;;;;;;;16.50;12.73;;;9.40;99.90;;;7.78;98.62;98988.63;10332372;28;96959;-77
2022/04/22 21:20:43;;;;;;;18.53;13.53;;;9.30;99.90;;;7.79;98.86;99011.41;10342386;28;96555;-77
2022/04/22 21:25:46;;;;;;;17.67;13.53;;;9.30;99.90;;;7.78;98.79;99015.06;10322137;28;96709;-79
2022/04/22 21:30:49;;;;;;;19.03;13.13;;;9.40;99.90;;;7.81;99.21;99018.38;10327854;28;97302;-78
2022/04/22 21:35:53;;;;;;;19.13;13.37;;;9.40;99.90;;;7.79;99.45;99026.47;10360764;28;96715;-78
2022/04/22 21:40:56;;;;;;;18.50;13.30;;;9.40;99.90;;;7.79;99.89;99022.00;10309410;28;96562;-78
2022/04/22 21:46:01;;;;;;;23.17;14.97;;;9.40;99.90;;;7.81;99.87;99023.66;10315262;28;96720;-78
2022/04/22 21:51:04;;;;;;;24.93;15.50;;;9.40;99.90;;;7.79;99.96;99022.00;10312539;28;97202;-78
2022/04/22 21:56:07;;;;;;;30.13;18.53;;;9.40;99.90;;;7.80;100.00;99017.56;10314145;28;96590;-78
2022/04/22 22:01:10;;;;;;;29.33;17.80;;;9.40;99.90;;;7.79;100.00;99003.47;10324243;28;97287;-78
2022/04/22 22:06:14;;;;;;;25.17;16.80;;;9.30;99.90;;;7.82;100.00;99002.31;10299284;28;97394;-78
2022/04/22 22:11:17;;;;;;;22.03;15.67;;;9.40;99.90;;;7.82;100.00;98990.91;10307793;28;97674;-77
2022/04/22 22:16:20;;;;;;;22.17;15.00;;;9.40;99.90;;;7.82;100.00;98991.75;10312778;28;96782;-78
2022/04/22 22:21:23;;;;;;;23.17;15.83;;;9.40;99.90;;;7.79;100.00;98992.09;10301729;28;96633;-77
2022/04/22 22:26:27;;;;;;;23.57;15.03;;;9.40;99.90;;;7.78;100.00;98991.25;10307055;28;96964;-77
2022/04/22 22:31:29;;;;;;;23.40;15.10;;;9.40;99.90;;;7.77;100.00;98984.34;10343200;28;96689;-78
2022/04/22 22:36:33;;;;;;;25.33;16.13;;;9.40;99.90;;;7.77;100.00;98988.81;10329576;28;96630;-78
2022/04/22 22:41:36;;;;;;;24.60;15.97;;;9.30;99.90;;;7.78;100.00;98988.63;10328440;28;96663;-77
2022/04/22 22:46:39;;;;;;;20.93;13.37;;;9.30;99.90;;;7.77;100.00;98991.44;10331027;28;96690;-78
2022/04/22 22:51:42;;;;;;;24.30;16.90;;;9.40;99.90;;;7.75;100.00;98983.69;10340835;28;96832;-77
2022/04/22 22:56:45;;;;;;;28.33;18.23;;;9.40;99.90;;;7.76;100.00;98984.53;10296984;28;97404;-77
2022/04/22 23:01:48;;;;;;;26.00;16.20;;;9.40;99.90;;;7.77;100.00;98984.34;10315043;28;98245;-77